Gulf Bridge — A8JM5 — position and weather

sailwx.info

Track history (hours):
 
Tides and Currents Weather Stations Pressure Air Temp Water Temp Dewpoint Dewpoint Depression Visibility Wind Speed Wind Dir Waves Ship Positions

Gulf Bridge

Last reported at 2015-Mar-02 22:33 UTC. Time now 2015-Mar-02 23:12 UTC.
Position S 38°44' E 150°59'.

Length 213 m; beam 32.2 m; draft 11.5 m.

Type: Cargo ship. MMSI: 636091115.

Date/timePositionNaut miles runAvg speedWind from/ knotsBaromVisibWave heightAir tempDewpointWater temp
2015-Mar-02 22:33S 38°44' E 150°59'1818.4
2015-Mar-02 21:33S 38°47' E 150°36'4419.8
2015-Mar-02 19:20S 38°58' E 149°41'2020.1
2015-Mar-02 18:20S 39°03' E 149°16'1619.9
2015-Mar-02 17:33S 39°07' E 148°56'2020.2
2015-Mar-02 16:33S 39°12' E 148°31'2220.5
2015-Mar-02 15:30S 39°17' E 148°04'1920.3
2015-Mar-02 14:33S 39°19' E 147°40'2020.3
2015-Mar-02 13:33S 39°18' E 147°13'2020.0
2015-Mar-02 12:33S 39°18' E 146°48'2019.7
2015-Mar-02 11:33S 39°17' E 146°22'1919.1
2015-Mar-02 10:34S 39°10' E 145°59'2019.5
2015-Mar-02 09:33S 38°59' E 145°38'3919.5
2015-Mar-02 07:33S 38°38' E 144°56'33 0.8
2015-Feb-28 16:29S 38°53' E 145°34'1515.7
2015-Feb-28 15:33S 39°01' E 145°50'1615.9
2015-Feb-28 14:33S 39°09' E 146°08'1514.8
2015-Feb-28 13:33S 39°09' E 146°27'1615.6
2015-Feb-28 12:33S 39°04' E 146°45'1515.3
2015-Feb-28 11:33S 38°59' E 147°04'1616.2
2015-Feb-28 10:34S 38°55' E 147°24'1716.6
2015-Feb-28 09:34S 38°50' E 147°44'1716.7
2015-Feb-28 08:33S 38°45' E 148°05'1717.2
2015-Feb-28 07:33S 38°38' E 148°25'1716.7
2015-Feb-28 06:33S 38°30' E 148°44'1716.6
2015-Feb-28 05:33S 38°21' E 149°01'1717.0
2015-Feb-28 04:33S 38°10' E 149°18'1716.7
2015-Feb-28 03:33S 37°59' E 149°34'1616.4
2015-Feb-28 02:33S 37°50' E 149°51'1817.5
2015-Feb-28 01:33S 37°36' E 150°04'1818.0
2015-Feb-28 00:32S 37°18' E 150°12'  
2015-Feb-23 05:33S 36°10' E 175°44'2018.0
2015-Feb-23 04:25S 36°27' E 175°58'  
Track history (hours):
 
Tides and Currents Weather Stations Pressure Air Temp Water Temp Dewpoint Dewpoint Depression Visibility Wind Speed Wind Dir Waves Ship Positions

Gulf Bridge

Last reported at 2015-Mar-02 22:33 UTC. Time now 2015-Mar-02 23:12 UTC.
Position S 38°44' E 150°59'.

Length 213 m; beam 32.2 m; draft 11.5 m.

Type: Cargo ship. MMSI: 636091115.

Date/timePositionNaut miles runAvg speedWind from/ knotsBaromVisibWave heightAir tempDewpointWater temp
2015-Mar-02 22:33S 38°44' E 150°59'1818.4
2015-Mar-02 21:33S 38°47' E 150°36'4419.8
2015-Mar-02 19:20S 38°58' E 149°41'2020.1
2015-Mar-02 18:20S 39°03' E 149°16'1619.9
2015-Mar-02 17:33S 39°07' E 148°56'2020.2
2015-Mar-02 16:33S 39°12' E 148°31'2220.5
2015-Mar-02 15:30S 39°17' E 148°04'1920.3
2015-Mar-02 14:33S 39°19' E 147°40'2020.3
2015-Mar-02 13:33S 39°18' E 147°13'2020.0
2015-Mar-02 12:33S 39°18' E 146°48'2019.7
2015-Mar-02 11:33S 39°17' E 146°22'1919.1
2015-Mar-02 10:34S 39°10' E 145°59'2019.5
2015-Mar-02 09:33S 38°59' E 145°38'3919.5
2015-Mar-02 07:33S 38°38' E 144°56'33 0.8
2015-Feb-28 16:29S 38°53' E 145°34'1515.7
2015-Feb-28 15:33S 39°01' E 145°50'1615.9
2015-Feb-28 14:33S 39°09' E 146°08'1514.8
2015-Feb-28 13:33S 39°09' E 146°27'1615.6
2015-Feb-28 12:33S 39°04' E 146°45'1515.3
2015-Feb-28 11:33S 38°59' E 147°04'1616.2
2015-Feb-28 10:34S 38°55' E 147°24'1716.6
2015-Feb-28 09:34S 38°50' E 147°44'1716.7
2015-Feb-28 08:33S 38°45' E 148°05'1717.2
2015-Feb-28 07:33S 38°38' E 148°25'1716.7
2015-Feb-28 06:33S 38°30' E 148°44'1716.6
2015-Feb-28 05:33S 38°21' E 149°01'1717.0
2015-Feb-28 04:33S 38°10' E 149°18'1716.7
2015-Feb-28 03:33S 37°59' E 149°34'1616.4
2015-Feb-28 02:33S 37°50' E 149°51'1817.5
2015-Feb-28 01:33S 37°36' E 150°04'1818.0
2015-Feb-28 00:32S 37°18' E 150°12'  
2015-Feb-23 05:33S 36°10' E 175°44'2018.0
2015-Feb-23 04:25S 36°27' E 175°58'  

Dump ship's entire track history